createdAt,value
2018-06-05T00:00:24.406Z,47.83
2018-06-05T00:02:52.574Z,51.00
2018-06-05T00:05:20.754Z,48.40
2018-06-05T00:07:48.987Z,52.33
2018-06-05T00:10:17.158Z,51.70
2018-06-05T00:12:45.306Z,53.73
2018-06-05T00:15:13.478Z,53.30
2018-06-05T00:17:41.658Z,51.87
2018-06-05T00:20:09.826Z,49.30
2018-06-05T00:22:37.990Z,50.13
2018-06-05T00:25:06.155Z,48.63
2018-06-05T00:27:34.352Z,52.47
2018-06-05T00:30:02.511Z,48.87
2018-06-05T00:32:30.674Z,51.03
2018-06-05T00:34:58.835Z,49.30
2018-06-05T00:37:27.002Z,51.73
2018-06-05T00:39:55.167Z,50.10
2018-06-05T00:42:23.338Z,50.90
2018-06-05T00:44:51.766Z,54.23
2018-06-05T00:47:19.922Z,50.83
2018-06-05T00:49:48.102Z,50.00
2018-06-05T00:52:16.259Z,52.33
2018-06-05T00:54:44.418Z,51.03
2018-06-05T00:57:12.586Z,50.00
2018-06-05T00:59:40.738Z,52.67
2018-06-05T01:02:08.914Z,51.57
2018-06-05T01:04:37.070Z,55.50
2018-06-05T01:07:05.234Z,55.43
2018-06-05T01:09:33.598Z,57.23
2018-06-05T01:12:01.750Z,56.17
2018-06-05T01:14:29.922Z,58.47
2018-06-05T01:16:58.070Z,57.00
2018-06-05T01:19:26.258Z,58.60
2018-06-05T01:21:54.418Z,56.40
2018-06-05T01:24:22.580Z,59.77
2018-06-05T01:26:50.739Z,59.93
2018-06-05T01:29:18.892Z,56.93
2018-06-05T01:31:47.055Z,61.20
2018-06-05T01:34:15.210Z,63.23
2018-06-05T01:36:43.402Z,57.93
2018-06-05T01:39:11.730Z,61.10
2018-06-05T01:41:39.885Z,63.83
2018-06-05T01:44:08.039Z,60.80
2018-06-05T01:46:36.190Z,61.07
2018-06-05T01:49:04.354Z,64.43
2018-06-05T01:51:32.520Z,61.60
2018-06-05T01:54:00.671Z,60.93
2018-06-05T01:56:28.834Z,63.93
2018-06-05T01:58:56.998Z,61.47
2018-06-05T02:01:25.154Z,60.27
2018-06-05T02:03:53.311Z,62.27
2018-06-05T02:06:21.475Z,58.47
2018-06-05T02:08:49.630Z,62.93
2018-06-05T02:11:17.798Z,60.00
2018-06-05T02:13:45.946Z,65.23
2018-06-05T02:16:14.107Z,61.93
2018-06-05T02:18:42.262Z,64.70
2018-06-05T02:21:10.434Z,59.13
2018-06-05T02:23:38.590Z,57.27
2018-06-05T02:26:06.766Z,62.20
2018-06-05T02:28:34.927Z,60.10
2018-06-05T02:31:03.078Z,64.00
2018-06-05T02:33:31.242Z,61.87
2018-06-05T02:35:59.399Z,64.77
2018-06-05T02:38:27.565Z,63.53
2018-06-05T02:40:55.728Z,65.27
2018-06-05T02:43:23.883Z,63.50
2018-06-05T02:45:52.039Z,62.23
2018-06-05T02:48:20.203Z,59.70
2018-06-05T02:50:48.371Z,60.60
2018-06-05T02:53:16.743Z,59.87
2018-06-05T02:55:44.899Z,63.90
2018-06-05T02:58:13.060Z,59.47
2018-06-05T03:00:41.237Z,64.57
2018-06-05T03:03:09.386Z,61.80
2018-06-05T03:05:37.558Z,61.93
2018-06-05T03:08:05.723Z,58.70
2018-06-05T03:10:33.894Z,59.77
2018-06-05T03:13:02.050Z,61.30
2018-06-05T03:15:30.230Z,63.27
2018-06-05T03:17:58.394Z,63.93
2018-06-05T03:20:27.344Z,57.93
2018-06-05T03:22:55.466Z,58.40
2018-06-05T03:25:23.624Z,62.70
2018-06-05T03:27:51.790Z,60.13
2018-06-05T03:30:19.950Z,60.00
2018-06-05T03:32:48.119Z,69.37
2018-06-05T03:35:16.283Z,64.03
2018-06-05T03:37:44.463Z,65.00
2018-06-05T03:40:12.622Z,64.73
2018-06-05T03:42:40.822Z,67.30
2018-06-05T03:45:08.954Z,66.20
2018-06-05T03:47:37.102Z,54.93
2018-06-05T03:50:05.266Z,62.13
2018-06-05T03:52:33.434Z,71.73
2018-06-05T03:55:01.608Z,60.83
2018-06-05T03:57:29.766Z,58.30
2018-06-05T03:59:57.930Z,61.43
2018-06-05T04:02:26.090Z,55.90
2018-06-05T04:04:54.262Z,60.03
2018-06-05T04:07:28.646Z,55.70
2018-06-05T04:09:56.814Z,63.53
2018-06-05T04:12:24.965Z,59.20
2018-06-05T04:14:53.127Z,61.33
2018-06-05T04:17:21.286Z,56.30
2018-06-05T04:19:49.518Z,58.07
2018-06-05T04:22:17.702Z,55.70
2018-06-05T04:24:45.894Z,57.57
2018-06-05T04:27:14.074Z,58.20
2018-06-05T04:29:42.238Z,52.50
2018-06-05T04:32:10.415Z,59.43
2018-06-05T04:34:38.574Z,55.80
2018-06-05T04:37:06.971Z,54.30
2018-06-05T04:39:35.217Z,51.00
2018-06-05T04:42:03.387Z,50.20
2018-06-05T04:44:31.542Z,51.07
2018-06-05T04:46:59.702Z,56.07
2018-06-05T04:49:27.864Z,46.67
2018-06-05T04:51:56.046Z,48.07
2018-06-05T04:54:24.223Z,47.67
2018-06-05T04:56:52.382Z,49.80
2018-06-05T04:59:20.558Z,50.40
2018-06-05T05:01:48.734Z,48.10
2018-06-05T05:04:16.889Z,47.47
2018-06-05T05:06:45.058Z,47.40
2018-06-05T05:09:13.401Z,45.63
2018-06-05T05:11:41.570Z,45.50
2018-06-05T05:14:09.734Z,43.67
2018-06-05T05:16:37.921Z,43.90
2018-06-05T05:19:06.158Z,46.30
2018-06-05T05:21:34.324Z,41.07
2018-06-05T05:24:02.487Z,42.70
2018-06-05T05:26:30.667Z,41.50
2018-06-05T05:28:58.826Z,45.80
2018-06-05T05:31:26.989Z,42.37
2018-06-05T05:33:55.142Z,40.67
2018-06-05T05:36:23.314Z,42.37
2018-06-05T05:38:51.494Z,40.63
2018-06-05T05:41:19.678Z,39.43
2018-06-05T05:43:47.846Z,38.90
2018-06-05T05:46:15.999Z,40.27
2018-06-05T05:48:44.182Z,40.13
2018-06-05T05:51:12.330Z,39.90
2018-06-05T05:53:40.534Z,39.60
2018-06-05T05:56:08.683Z,39.87
2018-06-05T05:58:36.842Z,38.97
2018-06-05T06:01:05.030Z,37.03
2018-06-05T06:03:33.198Z,39.17
2018-06-05T06:06:01.362Z,38.33
2018-06-05T06:08:29.514Z,37.00
2018-06-05T06:10:57.761Z,37.83
2018-06-05T06:13:25.842Z,35.47
2018-06-05T06:15:54.004Z,38.60
2018-06-05T06:18:22.163Z,38.37
2018-06-05T06:20:50.314Z,36.47
2018-06-05T06:23:18.470Z,39.17
2018-06-05T06:25:46.630Z,39.60
2018-06-05T06:28:14.799Z,38.33
2018-06-05T06:30:42.947Z,35.30
2018-06-05T06:33:11.100Z,38.03
2018-06-05T06:35:39.246Z,37.50
2018-06-05T06:38:07.414Z,37.77
2018-06-05T06:40:35.570Z,39.60
2018-06-05T06:43:03.738Z,38.10
2018-06-05T06:45:31.882Z,36.03
2018-06-05T06:48:00.026Z,36.23
2018-06-05T06:50:28.922Z,34.20
2018-06-05T06:52:57.074Z,36.50
2018-06-05T06:55:25.227Z,34.30
2018-06-05T06:57:53.379Z,36.17
2018-06-05T07:00:21.526Z,36.33
2018-06-05T07:02:49.678Z,36.57
2018-06-05T07:05:17.850Z,38.70
2018-06-05T07:07:46.001Z,37.50
2018-06-05T07:10:14.166Z,36.97
2018-06-05T07:12:42.323Z,36.33
2018-06-05T07:15:10.466Z,37.43
2018-06-05T07:17:38.626Z,36.67
2018-06-05T07:20:06.779Z,35.23
2018-06-05T07:22:34.952Z,38.13
2018-06-05T07:25:03.090Z,35.57
2018-06-05T07:27:31.246Z,38.17
2018-06-05T07:29:59.830Z,39.30
2018-06-05T07:32:27.990Z,36.90
2018-06-05T07:34:56.143Z,38.60
2018-06-05T07:37:24.315Z,38.97
2018-06-05T07:39:52.524Z,40.33
2018-06-05T07:42:20.700Z,36.27
2018-06-05T07:44:48.851Z,37.57
2018-06-05T07:47:17.014Z,39.60
2018-06-05T07:49:45.172Z,38.03
2018-06-05T07:52:13.329Z,37.90
2018-06-05T07:54:41.482Z,37.87
2018-06-05T07:57:09.293Z,38.50
2018-06-05T07:59:37.450Z,43.57
2018-06-05T08:02:05.614Z,42.03
2018-06-05T08:04:33.794Z,38.87
2018-06-05T08:07:02.078Z,37.83
2018-06-05T08:09:30.230Z,39.03
2018-06-05T08:11:58.387Z,39.37
2018-06-05T08:14:26.538Z,39.30
2018-06-05T08:16:54.715Z,38.87
2018-06-05T08:19:22.866Z,41.67
2018-06-05T08:21:51.031Z,39.67
2018-06-05T08:24:19.187Z,40.00
2018-06-05T08:26:52.075Z,38.37
2018-06-05T08:29:20.767Z,39.77
2018-06-05T08:31:48.974Z,40.10
2018-06-05T08:34:17.132Z,42.10
2018-06-05T08:36:45.291Z,43.70
2018-06-05T08:39:13.463Z,40.77
2018-06-05T08:41:41.683Z,42.33
2018-06-05T08:44:09.850Z,40.20
2018-06-05T08:46:38.018Z,42.87
2018-06-05T08:49:06.214Z,44.13
2018-06-05T08:51:34.378Z,41.40
2018-06-05T08:54:02.548Z,41.73
2018-06-05T08:56:30.703Z,41.07
2018-06-05T08:58:58.878Z,42.37
2018-06-05T09:01:27.050Z,39.67
2018-06-05T09:03:55.214Z,39.33
2018-06-05T09:06:23.370Z,39.13
2018-06-05T09:08:51.534Z,39.60
2018-06-05T09:11:19.718Z,42.40
2018-06-05T09:13:47.890Z,39.87
2018-06-05T09:16:16.054Z,39.20
2018-06-05T09:18:44.202Z,42.77
2018-06-05T09:21:12.375Z,37.27
2018-06-05T09:23:40.715Z,40.47
2018-06-05T09:26:08.886Z,39.37
2018-06-05T09:28:37.066Z,40.07
2018-06-05T09:31:05.238Z,39.53
2018-06-05T09:33:33.410Z,38.13
2018-06-05T09:36:01.582Z,36.97
2018-06-05T09:38:29.744Z,38.97
2018-06-05T09:40:57.911Z,37.63
2018-06-05T09:43:26.066Z,38.70
2018-06-05T09:45:54.226Z,39.80
2018-06-05T09:48:22.381Z,39.00
2018-06-05T09:50:50.561Z,37.87
2018-06-05T09:53:18.730Z,38.13
2018-06-05T09:55:46.903Z,40.40
2018-06-05T09:58:15.241Z,39.30
2018-06-05T10:00:48.626Z,39.23
2018-06-05T10:03:16.782Z,36.60
2018-06-05T10:05:44.959Z,40.73
2018-06-05T10:08:13.111Z,40.70
2018-06-05T10:10:41.294Z,41.53
2018-06-05T10:13:09.447Z,40.37
2018-06-05T10:15:37.606Z,41.50
2018-06-05T10:18:05.950Z,37.47
2018-06-05T10:20:34.135Z,39.23
2018-06-05T10:23:02.318Z,41.17
2018-06-05T10:25:30.498Z,41.37
2018-06-05T10:27:58.662Z,37.90
2018-06-05T10:30:26.887Z,39.50
2018-06-05T10:32:55.057Z,38.10
2018-06-05T10:35:23.222Z,41.07
2018-06-05T10:37:51.406Z,42.53
2018-06-05T10:40:19.571Z,40.13
2018-06-05T10:42:47.755Z,43.47
2018-06-05T10:45:15.918Z,44.57
2018-06-05T10:47:44.094Z,44.80
2018-06-05T10:50:12.270Z,43.30
2018-06-05T10:52:40.464Z,44.97
2018-06-05T10:55:08.631Z,46.20
2018-06-05T10:57:36.970Z,43.97
2018-06-05T11:00:05.239Z,47.83
2018-06-05T11:02:33.435Z,39.67
2018-06-05T11:05:01.582Z,44.03
2018-06-05T11:07:29.750Z,41.83
2018-06-05T11:09:57.922Z,42.57
2018-06-05T11:12:26.089Z,45.70
2018-06-05T11:14:54.239Z,44.40
2018-06-05T11:17:22.382Z,42.23
2018-06-05T11:19:50.610Z,45.10
2018-06-05T11:22:18.750Z,43.77
2018-06-05T11:24:46.951Z,44.57
2018-06-05T11:27:15.090Z,42.03
2018-06-05T11:29:43.258Z,45.70
2018-06-05T11:32:11.481Z,42.63
2018-06-05T11:34:39.622Z,40.87
2018-06-05T11:37:07.848Z,45.77
2018-06-05T11:39:36.043Z,39.83
2018-06-05T11:42:04.210Z,41.13
2018-06-05T11:44:32.462Z,41.20
2018-06-05T11:47:00.667Z,40.60
2018-06-05T11:49:28.821Z,40.03
2018-06-05T11:51:56.990Z,42.87
2018-06-05T11:54:25.159Z,41.17
2018-06-05T11:56:53.323Z,41.90
2018-06-05T11:59:21.491Z,43.43
2018-06-05T12:01:49.661Z,41.97
2018-06-05T12:04:17.833Z,40.83
2018-06-05T12:06:46.045Z,39.73
2018-06-05T12:09:14.208Z,40.50
2018-06-05T12:11:42.409Z,41.00
2018-06-05T12:14:10.577Z,39.00
2018-06-05T12:16:38.757Z,43.70
2018-06-05T12:19:06.922Z,37.47
2018-06-05T12:21:35.087Z,43.03
2018-06-05T12:24:03.246Z,41.40
2018-06-05T12:26:31.407Z,36.70
2018-06-05T12:28:59.563Z,41.17
2018-06-05T12:31:27.734Z,42.23
2018-06-05T12:33:55.942Z,43.77
2018-06-05T12:36:24.243Z,41.63
2018-06-05T12:38:52.579Z,40.73
2018-06-05T12:41:20.802Z,44.73
2018-06-05T12:43:48.962Z,40.63
2018-06-05T12:46:17.142Z,37.43
2018-06-05T12:48:45.342Z,39.73
2018-06-05T12:51:13.535Z,41.87
2018-06-05T12:53:41.902Z,43.03
2018-06-05T12:56:10.318Z,40.47
2018-06-05T12:58:38.495Z,43.90
2018-06-05T13:01:06.728Z,40.93
2018-06-05T13:03:34.898Z,42.07
2018-06-05T13:06:03.180Z,38.87
2018-06-05T13:08:31.411Z,39.57
2018-06-05T13:10:59.847Z,41.00
2018-06-05T13:13:28.079Z,41.50
2018-06-05T13:15:56.362Z,43.43
2018-06-05T13:18:24.590Z,43.03
2018-06-05T13:20:52.774Z,43.00
2018-06-05T13:23:20.922Z,41.07
2018-06-05T13:25:49.180Z,42.70
2018-06-05T13:28:17.362Z,41.20
2018-06-05T13:30:45.850Z,43.50
2018-06-05T13:33:14.102Z,40.23
2018-06-05T13:35:43.625Z,40.00
2018-06-05T13:38:11.817Z,42.03
2018-06-05T13:40:39.994Z,42.23
2018-06-05T13:43:08.296Z,40.87
2018-06-05T13:45:36.442Z,38.80
2018-06-05T13:48:04.647Z,40.37
2018-06-05T13:50:32.919Z,40.80
2018-06-05T13:53:01.211Z,37.33
2018-06-05T13:55:29.392Z,41.40
2018-06-05T13:57:57.592Z,40.47
2018-06-05T14:00:25.806Z,41.90
2018-06-05T14:02:53.995Z,39.17
2018-06-05T14:05:22.166Z,40.53
2018-06-05T14:07:50.332Z,42.27
2018-06-05T14:10:18.515Z,42.27
2018-06-05T14:12:46.707Z,43.27
2018-06-05T14:15:14.946Z,40.70
2018-06-05T14:17:43.115Z,41.97
2018-06-05T14:20:11.323Z,38.40
2018-06-05T14:22:39.484Z,39.57
2018-06-05T14:25:07.698Z,40.10
2018-06-05T14:27:35.870Z,40.47
2018-06-05T14:30:04.470Z,42.17
2018-06-05T14:32:32.656Z,40.60
2018-06-05T14:35:00.839Z,44.87
2018-06-05T14:37:29.063Z,44.03
2018-06-05T14:39:57.311Z,44.80
2018-06-05T14:42:25.526Z,42.33
2018-06-05T14:44:53.772Z,45.03
2018-06-05T14:47:21.946Z,44.37
2018-06-05T14:49:50.102Z,43.77
2018-06-05T14:52:18.321Z,43.67
2018-06-05T14:54:46.511Z,42.80
2018-06-05T14:57:14.670Z,42.47
2018-06-05T14:59:42.843Z,43.97
2018-06-05T15:02:11.040Z,45.57
2018-06-05T15:04:39.189Z,44.67
2018-06-05T15:07:07.334Z,43.50
2018-06-05T15:09:35.518Z,44.47
2018-06-05T15:12:04.163Z,42.57
2018-06-05T15:14:32.323Z,42.07
2018-06-05T15:17:00.480Z,40.33
2018-06-05T15:19:28.658Z,43.13
2018-06-05T15:24:47.270Z,38.70
2018-06-05T15:27:15.502Z,42.47
2018-06-05T15:29:43.659Z,38.10
2018-06-05T15:32:11.810Z,41.33
2018-06-05T15:34:39.983Z,41.63
2018-06-05T15:37:08.275Z,42.97
2018-06-05T15:39:36.830Z,38.27
2018-06-05T15:42:05.145Z,38.67
2018-06-05T15:44:33.338Z,39.03
2018-06-05T15:47:01.535Z,45.37
2018-06-05T15:49:29.765Z,39.83
2018-06-05T15:51:57.949Z,42.10
2018-06-05T15:54:26.146Z,43.67
2018-06-05T15:56:54.618Z,41.80
2018-06-05T15:59:22.803Z,41.30
2018-06-05T16:01:50.987Z,40.20
2018-06-05T16:04:19.183Z,42.10
2018-06-05T16:06:47.347Z,42.47
2018-06-05T16:09:15.512Z,40.60
2018-06-05T16:11:43.726Z,41.93
2018-06-05T16:14:11.878Z,41.33
2018-06-05T16:16:40.047Z,40.10
2018-06-05T16:19:08.233Z,39.13
2018-06-05T16:21:38.057Z,40.23
2018-06-05T16:24:06.386Z,40.43
2018-06-05T16:26:34.538Z,41.50
2018-06-05T16:29:02.727Z,39.40
2018-06-05T16:31:30.898Z,38.93
2018-06-05T16:33:59.054Z,38.80
2018-06-05T16:36:27.270Z,38.60
2018-06-05T16:38:55.426Z,38.03
2018-06-05T16:41:23.606Z,39.43
2018-06-05T16:43:51.762Z,38.33
2018-06-05T16:46:19.926Z,37.87
2018-06-05T16:48:48.106Z,36.63
2018-06-05T16:51:16.259Z,38.83
2018-06-05T16:53:44.431Z,42.13
2018-06-05T16:56:12.618Z,37.50
2018-06-05T16:58:40.811Z,37.50
2018-06-05T17:01:09.284Z,37.27
2018-06-05T17:03:37.479Z,36.40
2018-06-05T17:06:05.658Z,38.27
2018-06-05T17:08:33.847Z,37.53
2018-06-05T17:11:02.330Z,37.23
2018-06-05T17:13:30.540Z,39.37
2018-06-05T17:15:58.811Z,37.97
2018-06-05T17:18:27.158Z,38.73
2018-06-05T17:20:55.490Z,41.07
2018-06-05T17:23:24.015Z,42.50
2018-06-05T17:25:52.254Z,41.07
2018-06-05T17:28:20.579Z,40.47
2018-06-05T17:30:48.857Z,41.73
2018-06-05T17:33:18.043Z,40.33
2018-06-05T17:35:46.194Z,42.60
2018-06-05T17:38:14.398Z,41.87
2018-06-05T17:40:42.624Z,39.67
2018-06-05T17:43:10.863Z,40.73
2018-06-05T17:45:39.118Z,38.37
2018-06-05T17:48:07.337Z,38.27
2018-06-05T17:50:35.712Z,37.83
2018-06-05T17:53:03.925Z,38.77
2018-06-05T17:55:32.162Z,38.70
2018-06-05T17:58:00.358Z,39.13
2018-06-05T18:00:28.782Z,41.07
2018-06-05T18:02:56.942Z,38.40
2018-06-05T18:05:25.180Z,42.77
2018-06-05T18:07:53.422Z,37.50
2018-06-05T18:10:21.681Z,41.13
2018-06-05T18:12:49.834Z,39.53
2018-06-05T18:15:18.223Z,40.93
2018-06-05T18:17:46.527Z,43.10
2018-06-05T18:20:14.706Z,42.53
2018-06-05T18:22:42.970Z,39.67
2018-06-05T18:25:11.166Z,46.13
2018-06-05T18:27:39.346Z,45.70
2018-06-05T18:30:07.687Z,41.23
2018-06-05T18:32:35.880Z,42.73
2018-06-05T18:35:04.124Z,40.00
2018-06-05T18:37:32.326Z,40.33
2018-06-05T18:40:00.489Z,44.07
2018-06-05T18:42:28.648Z,46.23
2018-06-05T18:44:56.895Z,47.13
2018-06-05T18:47:25.050Z,47.63
2018-06-05T18:49:53.225Z,46.97
2018-06-05T18:52:21.378Z,46.40
2018-06-05T18:54:49.522Z,45.00
2018-06-05T18:57:17.769Z,53.90
2018-06-05T18:59:46.034Z,50.60
2018-06-05T19:02:14.458Z,55.40
2018-06-05T19:04:42.698Z,49.43
2018-06-05T19:07:10.883Z,50.47
2018-06-05T19:09:45.535Z,58.03
2018-06-05T19:12:13.953Z,52.77
2018-06-05T19:14:42.485Z,54.23
2018-06-05T19:17:10.771Z,60.90
2018-06-05T19:19:39.039Z,62.63
2018-06-05T19:22:07.327Z,57.03
2018-06-05T19:24:35.610Z,66.50
2018-06-05T19:27:03.811Z,60.57
2018-06-05T19:29:32.154Z,60.23
2018-06-05T19:32:00.320Z,64.53
2018-06-05T19:34:29.329Z,54.67
2018-06-05T19:36:57.486Z,59.87
2018-06-05T19:39:25.646Z,56.30
2018-06-05T19:41:53.802Z,59.30
2018-06-05T19:44:21.950Z,59.63
2018-06-05T19:46:50.114Z,56.73
2018-06-05T19:49:18.279Z,55.80
2018-06-05T19:51:46.511Z,58.97
2018-06-05T19:54:14.664Z,56.77
2018-06-05T19:56:42.826Z,62.03
2018-06-05T19:59:11.187Z,56.37
2018-06-05T20:01:39.338Z,61.00
2018-06-05T20:04:07.498Z,59.17
2018-06-05T20:06:35.642Z,59.80
2018-06-05T20:09:04.231Z,62.73
2018-06-05T20:11:32.382Z,60.30
2018-06-05T20:14:00.682Z,63.27
2018-06-05T20:16:28.846Z,61.20
2018-06-05T20:18:57.002Z,68.83
2018-06-05T20:21:25.338Z,65.30
2018-06-05T20:23:53.507Z,66.17
2018-06-05T20:26:21.648Z,64.87
2018-06-05T20:28:49.802Z,69.93
2018-06-05T20:31:17.970Z,70.97
2018-06-05T20:33:46.118Z,67.40
2018-06-05T20:36:14.282Z,70.00
2018-06-05T20:38:42.456Z,64.77
2018-06-05T20:41:10.618Z,68.30
2018-06-05T20:43:38.762Z,66.63
2018-06-05T20:46:06.935Z,73.67
2018-06-05T20:48:35.106Z,65.60
2018-06-05T20:51:03.279Z,71.03
2018-06-05T20:53:31.459Z,68.03
2018-06-05T20:55:59.614Z,66.03
2018-06-05T20:58:27.763Z,72.03
2018-06-05T21:00:55.934Z,79.57
2018-06-05T21:03:24.094Z,71.90
2018-06-05T21:05:52.279Z,79.47
2018-06-05T21:08:20.430Z,78.70
2018-06-05T21:10:48.591Z,81.20
2018-06-05T21:13:16.739Z,78.47
2018-06-05T21:15:44.890Z,73.17
2018-06-05T21:18:13.078Z,78.43
2018-06-05T21:20:41.226Z,84.40
2018-06-05T21:23:09.375Z,84.20
2018-06-05T21:25:37.522Z,78.00
2018-06-05T21:28:05.859Z,68.87
2018-06-05T21:30:34.470Z,76.23
2018-06-05T21:33:02.606Z,72.70
2018-06-05T21:35:30.757Z,79.70
2018-06-05T21:37:59.022Z,74.37
2018-06-05T21:40:27.665Z,72.90
2018-06-05T21:42:55.894Z,76.37
2018-06-05T21:45:24.046Z,77.43
2018-06-05T21:47:52.186Z,77.83
2018-06-05T21:50:20.335Z,79.30
2018-06-05T21:52:48.475Z,70.20
2018-06-05T21:55:16.628Z,68.73
2018-06-05T21:57:44.774Z,72.07
2018-06-05T22:00:12.938Z,75.40
2018-06-05T22:02:41.090Z,66.77
2018-06-05T22:05:09.254Z,71.37
2018-06-05T22:07:37.415Z,77.50
2018-06-05T22:10:05.566Z,67.13
2018-06-05T22:12:33.743Z,75.00
2018-06-05T22:15:01.887Z,66.70
2018-06-05T22:17:30.052Z,60.63
2018-06-05T22:19:58.313Z,64.67
2018-06-05T22:22:26.470Z,74.47
2018-06-05T22:24:54.622Z,65.63
2018-06-05T22:27:22.770Z,65.70
2018-06-05T22:29:50.942Z,64.70
2018-06-05T22:32:19.105Z,73.10
2018-06-05T22:34:47.274Z,66.87
2018-06-05T22:37:15.442Z,69.73
2018-06-05T22:39:43.615Z,72.50
2018-06-05T22:42:11.790Z,82.03
2018-06-05T22:44:39.982Z,67.80
2018-06-05T22:47:08.134Z,67.97
2018-06-05T22:49:36.314Z,63.20
2018-06-05T22:52:04.482Z,60.27
2018-06-05T22:54:32.639Z,61.63
2018-06-05T22:57:00.814Z,67.33
2018-06-05T22:59:28.988Z,76.00
2018-06-05T23:01:57.158Z,63.23
2018-06-05T23:04:25.320Z,64.60
2018-06-05T23:06:53.466Z,60.53
2018-06-05T23:09:21.634Z,64.50
2018-06-05T23:11:49.844Z,64.53
2018-06-05T23:14:18.010Z,66.83
2018-06-05T23:16:46.174Z,63.10
2018-06-05T23:19:14.337Z,67.47
2018-06-05T23:21:42.495Z,61.50
2018-06-05T23:24:10.650Z,59.73
2018-06-05T23:26:39.176Z,64.10
2018-06-05T23:29:07.326Z,59.80
2018-06-05T23:31:35.482Z,63.43
2018-06-05T23:34:03.650Z,63.43
2018-06-05T23:36:31.808Z,63.17
2018-06-05T23:38:59.969Z,61.30
2018-06-05T23:41:28.134Z,59.00
2018-06-05T23:43:56.302Z,57.63
2018-06-05T23:46:24.459Z,64.03
2018-06-05T23:48:52.618Z,62.63
2018-06-05T23:51:20.779Z,60.50
2018-06-05T23:53:48.930Z,68.87
2018-06-05T23:56:17.106Z,71.07
2018-06-05T23:58:45.262Z,63.10
